Time;durP1;ratioP1;P1;durP2;ratioP2;P2;SDS_P1;SDS_P2;PMS_P1;PMS_P2;Temp;Humidity;BMP_temperature;BMP_pressure;BME280_temperature;BME280_humidity;BME280_pressure;Samples;Min_cycle;Max_cycle;Signal;HPM_P1;HPM_P2
2022/08/11 00:00:09;;;;;;;543.38;504.23;;;;;;;20.25;41.09;97112.94;5033306;28;20182;-65
2022/08/11 00:02:42;;;;;;;575.92;534.58;;;;;;;20.28;40.78;97116.91;5034379;28;20174;-65
2022/08/11 00:05:16;;;;;;;575.83;535.50;;;;;;;20.20;41.04;97120.97;5034363;28;20186;-66
2022/08/11 00:07:47;;;;;;;589.92;547.92;;;;;;;20.18;41.41;97117.78;5027267;28;20214;-65
2022/08/11 00:10:17;;;;;;;581.55;541.08;;;;;;;20.17;41.17;97118.09;5033932;28;20214;-66
2022/08/11 00:12:49;;;;;;;576.47;535.95;;;;;;;20.12;41.27;97126.88;5033988;28;20624;-65
2022/08/11 00:15:15;;;;;;;595.40;554.08;;;;;;;20.09;41.52;97126.66;5033952;28;20233;-66
2022/08/11 00:17:42;;;;;;;594.20;552.55;;;;;;;20.12;41.37;97116.25;5037429;28;20587;-65
2022/08/11 00:20:10;;;;;;;605.08;561.83;;;;;;;20.19;41.26;97111.38;5033639;28;20187;-65
2022/08/11 00:22:40;;;;;;;608.20;562.83;;;;;;;20.18;41.36;97117.78;5034041;28;20179;-64
2022/08/11 00:25:15;;;;;;;607.20;560.28;;;;;;;20.11;41.56;97112.00;5033944;28;20179;-65
2022/08/11 00:27:41;;;;;;;594.70;549.08;;;;;;;20.01;41.64;97116.59;5032891;28;20225;-65
2022/08/11 00:30:09;;;;;;;591.13;544.28;;;;;;;19.91;41.90;97120.94;5033340;28;20308;-65
2022/08/11 00:32:37;;;;;;;589.42;543.00;;;;;;;19.99;41.79;97113.44;5034106;28;20217;-65
2022/08/11 00:35:06;;;;;;;590.05;543.78;;;;;;;19.98;41.70;97115.31;5033979;28;20187;-65
2022/08/11 00:37:33;;;;;;;624.78;574.70;;;;;;;20.00;41.79;97121.16;5033581;28;20198;-65
2022/08/11 00:40:00;;;;;;;645.15;594.50;;;;;;;19.96;42.04;97114.78;5032169;28;20182;-65
2022/08/11 00:42:28;;;;;;;676.17;623.00;;;;;;;20.01;41.84;97112.06;5033294;28;20200;-65
2022/08/11 00:45:02;;;;;;;687.05;632.45;;;;;;;19.91;42.12;97125.47;5033348;28;20235;-66
2022/08/11 00:47:30;;;;;;;718.10;659.47;;;;;;;19.88;42.25;97120.72;5033433;28;20204;-65
2022/08/11 00:50:16;;;;;;;715.45;659.05;;;;;;;19.89;42.21;97122.31;5033574;28;20214;-65
2022/08/11 00:53:07;;;;;;;753.03;693.08;;;;;;;19.80;42.33;97118.63;5033377;28;20174;-65
2022/08/11 00:55:32;;;;;;;747.60;688.85;;;;;;;19.74;42.51;97117.88;5032253;28;20183;-65
2022/08/11 00:58:23;;;;;;;777.85;715.55;;;;;;;19.74;42.70;97120.53;5032632;28;20671;-65
2022/08/11 01:01:10;;;;;;;772.17;712.40;;;;;;;19.77;42.61;97116.53;5033275;28;20179;-65
2022/08/11 01:03:47;;;;;;;764.45;704.53;;;;;;;19.66;42.93;97113.16;5030850;28;20194;-65
2022/08/11 01:06:50;;;;;;;775.35;713.40;;;;;;;19.67;42.98;97116.59;5033262;28;20193;-65
2022/08/11 01:09:49;;;;;;;747.67;687.60;;;;;;;19.60;43.24;97105.47;5031776;28;20202;-65
2022/08/11 01:12:15;;;;;;;766.88;705.38;;;;;;;19.61;43.61;97112.38;5032610;28;20636;-65
2022/08/11 01:15:29;;;;;;;773.58;706.88;;;;;;;19.55;43.65;97119.59;5031008;28;20186;-65
2022/08/11 01:18:20;;;;;;;796.40;729.42;;;;;;;19.55;43.66;97118.81;5029312;28;20194;-64
2022/08/11 01:21:04;;;;;;;769.20;705.13;;;;;;;19.54;43.84;97110.03;5031834;28;20646;-65
2022/08/11 01:24:37;;;;;;;856.47;780.42;;;;;;;19.54;44.25;97114.53;5032816;28;20574;-64
2022/08/11 01:27:27;;;;;;;745.70;686.65;;;;;;;19.50;44.26;97107.09;5011512;28;20321;-65
2022/08/11 01:30:07;;;;;;;736.13;677.10;;;;;;;19.49;44.43;97110.84;5032863;28;20202;-65
2022/08/11 01:33:00;;;;;;;707.55;652.28;;;;;;;19.47;44.50;97107.66;5032648;28;20183;-63
2022/08/11 01:36:13;;;;;;;650.30;598.45;;;;;;;19.48;44.72;97111.13;5032827;28;20179;-63
2022/08/11 01:38:55;;;;;;;642.00;592.30;;;;;;;19.45;45.06;97103.69;4974663;28;20253;-65
2022/08/11 01:41:24;;;;;;;615.13;569.40;;;;;;;19.44;45.06;97104.75;4991032;28;20184;-64
2022/08/11 01:47:05;;;;;;;508.70;473.08;;;;;;;19.30;45.50;97101.88;4990537;28;20235;-64
2022/08/11 01:49:38;;;;;;;525.92;490.17;;;;;;;19.34;45.37;97104.78;4990870;28;20231;-64
2022/08/11 01:52:25;;;;;;;532.33;495.58;;;;;;;19.27;45.57;97096.34;4990931;28;20180;-65
2022/08/11 01:55:28;;;;;;;529.22;491.02;;;;;;;19.30;45.77;97095.78;4974548;28;20214;-65
2022/08/11 01:58:08;;;;;;;514.65;478.38;;;;;;;19.21;45.89;97095.56;4990586;28;20331;-65
2022/08/11 02:00:47;;;;;;;548.15;510.08;;;;;;;19.26;45.83;97097.41;4990477;28;20669;-65
2022/08/11 02:03:30;;;;;;;593.92;551.47;;;;;;;19.30;45.86;97093.13;4989863;28;20567;-65
2022/08/11 02:06:01;;;;;;;592.83;551.67;;;;;;;19.22;46.06;97088.38;4991346;28;20184;-64
2022/08/11 02:08:39;;;;;;;587.22;545.42;;;;;;;19.22;46.18;97094.50;4997626;28;20179;-64
2022/08/11 02:11:29;;;;;;;602.60;557.53;;;;;;;19.10;46.50;97094.03;5036179;28;20241;-65
2022/08/11 02:14:01;;;;;;;571.83;531.85;;;;;;;19.07;46.56;97090.03;5036432;28;20289;-64
2022/08/11 02:16:56;;;;;;;552.10;512.58;;;;;;;19.08;46.53;97086.31;5038415;28;20262;-64
2022/08/11 02:25:04;;;;;;;569.03;527.92;;;;;;;19.00;46.82;97084.22;5036062;28;20197;-64
2022/08/11 02:28:10;;;;;;;570.85;530.35;;;;;;;18.84;47.35;97084.56;5035597;28;20472;-64
2022/08/11 02:33:21;;;;;;;603.05;559.55;;;;;;;18.96;47.03;97093.81;5035816;28;20198;-64
2022/08/11 02:33:50;;;;;;;610.70;567.47;;;;;;;18.86;47.32;97083.22;5035425;28;20190;-65
2022/08/11 02:36:23;;;;;;;622.40;578.75;;;;;;;18.97;47.30;97086.63;5035944;28;20624;-64
2022/08/11 02:38:59;;;;;;;595.72;554.58;;;;;;;19.00;47.19;97073.59;5036206;28;20540;-64
2022/08/11 02:44:43;;;;;;;549.13;510.13;;;;;;;18.83;47.85;97075.81;5036052;28;20205;-65
2022/08/11 02:50:41;;;;;;;584.63;541.13;;;;;;;18.85;47.86;97075.53;5029886;28;20329;-65
2022/08/11 02:53:25;;;;;;;562.92;522.28;;;;;;;18.72;48.16;97079.56;5035758;28;20182;-64
2022/08/11 02:55:59;;;;;;;594.95;549.58;;;;;;;18.75;48.15;97073.72;5035872;28;20174;-64
2022/08/11 02:58:40;;;;;;;613.10;564.65;;;;;;;18.75;48.20;97079.03;5035381;28;20190;-65
2022/08/11 03:01:15;;;;;;;624.90;576.03;;;;;;;18.73;47.95;97075.81;5035679;28;20647;-64
2022/08/11 03:04:07;;;;;;;613.23;565.00;;;;;;;18.72;47.99;97082.22;5035329;28;20292;-64
2022/08/11 03:06:58;;;;;;;667.90;612.47;;;;;;;18.68;48.34;97087.28;5033851;28;20230;-64
2022/08/11 03:09:36;;;;;;;660.63;604.33;;;;;;;18.60;48.51;97079.06;5035379;28;20272;-65
2022/08/11 03:18:33;;;;;;;791.85;722.78;;;;;;;18.43;49.26;97089.19;5027284;28;20221;-64
2022/08/11 03:21:17;;;;;;;821.17;749.22;;;;;;;18.34;49.59;97088.13;5034224;28;20181;-65
2022/08/11 03:23:49;;;;;;;810.53;737.37;;;;;;;18.29;49.89;97089.72;5034871;28;20249;-64
2022/08/11 03:26:25;;;;;;;934.53;839.27;;;;;;;18.32;49.91;97093.72;5033949;28;20240;-64
2022/08/11 03:29:03;;;;;;;869.27;786.13;;;;;;;18.26;50.13;97087.63;5035032;28;20174;-64
2022/08/11 03:31:34;;;;;;;846.57;763.50;;;;;;;18.20;50.57;97095.84;5033985;28;20214;-64
2022/08/11 03:34:12;;;;;;;813.47;737.88;;;;;;;18.18;50.67;97092.66;5034079;28;20718;-65
2022/08/11 03:36:40;;;;;;;820.90;743.67;;;;;;;18.12;51.01;97099.03;5035092;28;20171;-64
2022/08/11 03:39:19;;;;;;;818.37;745.03;;;;;;;18.14;50.78;97095.06;5034829;28;20656;-64
2022/08/11 03:42:05;;;;;;;829.70;750.30;;;;;;;18.14;50.11;97099.56;5035091;28;20178;-65
2022/08/11 03:44:34;;;;;;;758.20;692.20;;;;;;;18.04;50.84;97105.69;5034692;28;20182;-64
2022/08/11 03:47:17;;;;;;;722.92;660.70;;;;;;;18.06;51.02;97100.88;5034526;28;20218;-65
2022/08/11 03:50:13;;;;;;;714.73;654.13;;;;;;;18.02;51.01;97102.47;5034554;28;20195;-65
2022/08/11 03:53:09;;;;;;;697.77;639.23;;;;;;;18.01;51.11;97100.88;5033489;28;20186;-63
2022/08/11 03:56:12;;;;;;;691.10;632.87;;;;;;;17.98;51.22;97101.44;5034143;28;20195;-64
2022/08/11 03:59:05;;;;;;;729.27;667.57;;;;;;;17.98;51.24;97096.13;5034322;28;20201;-63
2022/08/11 04:01:50;;;;;;;717.80;657.63;;;;;;;18.03;50.99;97106.72;5034447;28;20264;-64
2022/08/11 04:04:30;;;;;;;712.20;652.20;;;;;;;18.04;51.19;97097.72;5034167;28;20175;-63
2022/08/11 04:07:07;;;;;;;732.70;670.40;;;;;;;18.05;50.97;97099.31;5034487;28;20256;-63
2022/08/11 04:10:06;;;;;;;713.10;653.33;;;;;;;17.98;51.51;97101.44;5034480;28;20281;-64
2022/08/11 04:12:49;;;;;;;725.07;667.13;;;;;;;18.01;51.52;97098.22;5012757;28;20167;-63
2022/08/11 04:16:01;;;;;;;703.83;648.87;;;;;;;18.00;51.65;97101.19;5025683;28;20230;-63
2022/08/11 04:18:45;;;;;;;654.60;604.20;;;;;;;18.07;51.08;97099.81;5018250;28;20246;-66
2022/08/11 04:21:58;;;;;;;584.03;540.80;;;;;;;17.99;51.52;97104.88;5032867;28;20297;-63
2022/08/11 04:24:42;;;;;;;608.50;562.53;;;;;;;17.95;51.57;97101.16;5000668;28;20198;-63
2022/08/11 04:27:41;;;;;;;632.70;584.30;;;;;;;18.01;51.34;97095.56;5032022;28;20535;-63
2022/08/11 04:30:13;;;;;;;662.57;611.53;;;;;;;17.95;51.52;97088.69;5031922;28;20689;-64
2022/08/11 04:32:57;;;;;;;663.47;613.30;;;;;;;18.11;51.23;97092.91;5032620;28;20233;-63
2022/08/11 04:35:44;;;;;;;668.53;616.73;;;;;;;18.18;51.01;97101.41;5032428;28;20325;-64
2022/08/11 04:38:35;;;;;;;651.97;602.60;;;;;;;18.20;51.14;97101.16;5031713;28;20201;-64
2022/08/11 04:41:30;;;;;;;673.63;621.23;;;;;;;18.02;51.57;97102.47;5031714;28;20178;-64
2022/08/11 04:44:24;;;;;;;676.00;623.60;;;;;;;17.99;51.71;97099.56;5032941;28;20202;-64
2022/08/11 04:47:11;;;;;;;663.30;611.33;;;;;;;18.08;51.52;97105.94;5033530;28;20182;-65
2022/08/11 05:02:31;;;;;;;742.40;681.80;;;;;;;18.32;51.13;97106.97;5032480;28;20262;-63
2022/08/11 05:05:35;;;;;;;778.35;710.22;;;;;;;18.53;50.56;97111.19;5032712;28;20179;-64
2022/08/11 05:08:25;;;;;;;766.00;701.05;;;;;;;18.93;49.58;97104.19;5031177;28;20189;-64
2022/08/11 05:11:34;;;;;;;618.00;571.87;;;;;;;18.88;49.56;97110.31;5032608;28;20228;-64
2022/08/11 05:36:53;;;;;;;720.78;657.65;;;;;;;19.87;47.33;97117.25;5032017;28;20283;-63
2022/08/11 05:56:19;;;;;;;723.50;667.75;;;;;;;20.36;46.67;97113.66;5032037;28;20191;-64
2022/08/11 05:58:56;;;;;;;740.35;682.97;;;;;;;20.79;46.16;97121.78;5032355;28;20178;-63
2022/08/11 06:01:27;;;;;;;788.00;724.13;;;;;;;20.61;46.53;97115.31;5032947;28;20181;-66
2022/08/11 06:04:14;;;;;;;754.30;695.33;;;;;;;21.12;45.85;97113.63;5032129;28;20190;-63
2022/08/11 06:06:49;;;;;;;725.88;669.92;;;;;;;21.01;45.66;97116.72;5032501;28;20623;-64
2022/08/11 06:09:21;;;;;;;711.85;655.25;;;;;;;20.99;46.29;97110.88;5032107;28;20224;-64
2022/08/11 06:11:46;;;;;;;756.13;694.20;;;;;;;20.73;46.51;97115.72;5031721;28;20175;-64
2022/08/11 06:14:14;;;;;;;769.40;706.70;;;;;;;21.21;45.84;97118.38;5032042;28;20193;-64
2022/08/11 06:16:41;;;;;;;715.78;658.58;;;;;;;21.11;45.72;97108.59;5032400;28;20193;-64
2022/08/11 06:19:08;;;;;;;735.33;675.15;;;;;;;20.99;46.07;97116.19;5030946;28;20670;-64
2022/08/11 06:21:35;;;;;;;905.42;809.50;;;;;;;20.34;46.91;97108.63;5031909;28;20233;-63
2022/08/11 06:24:04;;;;;;;789.70;722.58;;;;;;;20.80;46.48;97126.00;5028262;28;20201;-64
2022/08/11 06:26:30;;;;;;;753.13;692.20;;;;;;;21.15;45.85;97120.31;5032084;28;20248;-63
2022/08/11 06:28:58;;;;;;;838.45;753.15;;;;;;;20.96;45.94;97122.88;5032324;28;20542;-63
2022/08/11 06:31:24;;;;;;;759.15;698.65;;;;;;;21.29;45.67;97126.50;5031988;28;20236;-63
2022/08/11 06:33:49;;;;;;;790.67;723.78;;;;;;;21.42;45.42;97114.34;5031873;28;20194;-63
2022/08/11 06:36:56;;;;;;;685.28;632.05;;;;;;;21.63;44.94;97117.50;5030739;28;20197;-64
2022/08/11 06:39:43;;;;;;;753.00;689.47;;;;;;;20.79;46.25;97129.78;5032086;28;20233;-63
2022/08/11 06:42:13;;;;;;;791.45;727.10;;;;;;;21.23;45.97;97127.69;5031914;28;20205;-64
2022/08/11 06:44:47;;;;;;;787.60;714.33;;;;;;;21.02;45.80;97126.28;5031790;28;20186;-64
2022/08/11 06:47:16;;;;;;;763.05;700.78;;;;;;;21.20;45.63;97122.09;5031824;28;20193;-64
2022/08/11 06:52:32;;;;;;;668.33;620.08;;;;;;;22.12;43.62;97123.22;5032173;28;20202;-64
2022/08/11 06:55:07;;;;;;;708.83;656.33;;;;;;;22.33;43.63;97121.78;5032771;28;20179;-63
2022/08/11 07:00:28;;;;;;;589.42;546.50;;;;;;;22.63;42.96;97120.44;5015880;28;20183;-64
2022/08/11 07:03:12;;;;;;;601.25;557.05;;;;;;;22.73;42.44;97119.50;5023921;28;20186;-64
2022/08/11 07:05:50;;;;;;;655.15;604.17;;;;;;;22.00;43.74;97132.75;5031103;28;20506;-64
2022/08/11 07:15:40;;;;;;;780.42;710.20;;;;;;;22.22;43.55;97130.25;5029318;28;20174;-66
2022/08/11 07:17:21;;;;;;;640.83;592.42;;;;;;;22.33;44.13;97121.00;5027748;28;20244;-65
2022/08/11 07:31:13;;;;;;;621.08;576.90;;;;;;;22.95;42.50;97114.25;5032660;28;20251;-64
2022/08/11 07:33:56;;;;;;;619.35;576.10;;;;;;;22.83;42.77;97121.19;5031729;28;20283;-64
2022/08/11 07:36:26;;;;;;;704.47;649.17;;;;;;;22.62;43.06;97110.06;5033026;28;20194;-64
2022/08/11 07:38:55;;;;;;;614.55;569.78;;;;;;;23.47;40.97;97106.78;5033309;28;20179;-65
2022/08/11 07:41:22;;;;;;;603.78;557.25;;;;;;;23.01;41.45;97102.38;5032965;28;20187;-65
2022/08/11 07:43:54;;;;;;;614.72;567.95;;;;;;;22.95;41.90;97111.59;5033009;28;20195;-64
2022/08/11 07:54:37;;;;;;;579.75;536.22;;;;;;;22.93;42.14;97108.41;5033630;28;20284;-64
2022/08/11 08:19:14;;;;;;;714.10;653.58;;;;;;;23.71;40.15;97093.91;5033130;28;20193;-64
2022/08/11 08:21:42;;;;;;;640.40;590.28;;;;;;;23.91;39.31;97100.66;5021694;28;20545;-64
2022/08/11 08:24:08;;;;;;;735.67;677.50;;;;;;;23.97;39.21;97104.81;5032493;28;20186;-65
2022/08/11 08:32:07;;;;;;;674.53;620.47;;;;;;;23.70;39.58;97107.59;5030407;28;20690;-65
2022/08/11 08:34:34;;;;;;;740.10;672.90;;;;;;;24.10;38.72;97106.66;5032245;28;20548;-66
2022/08/11 08:37:00;;;;;;;663.78;607.55;;;;;;;24.17;39.25;97106.22;5031017;28;20190;-65
2022/08/11 08:39:25;;;;;;;709.28;648.17;;;;;;;23.97;39.04;97105.59;5032105;28;20179;-67
2022/08/11 08:41:58;;;;;;;643.20;591.00;;;;;;;23.78;38.40;97115.72;5030575;28;20274;-66
2022/08/11 08:44:25;;;;;;;1526.30;915.53;;;;;;;23.79;39.03;97108.47;5031260;28;20198;-65
2022/08/11 08:46:55;;;;;;;698.13;643.13;;;;;;;24.13;38.08;97114.06;5032594;28;20194;-65
2022/08/11 08:49:28;;;;;;;652.50;602.00;;;;;;;23.85;38.93;97101.91;5028788;28;20212;-66
2022/08/11 08:52:00;;;;;;;623.22;576.58;;;;;;;23.97;38.42;97099.47;5027846;28;20229;-66
2022/08/11 08:54:35;;;;;;;704.67;648.92;;;;;;;24.61;37.78;97103.50;5025929;28;20243;-66
2022/08/11 08:57:04;;;;;;;582.38;538.45;;;;;;;24.39;37.90;97103.53;5028574;28;20186;-66
2022/08/11 08:59:32;;;;;;;706.00;643.55;;;;;;;24.09;38.20;97106.94;5027634;28;20608;-66
2022/08/11 09:02:00;;;;;;;923.00;762.97;;;;;;;24.26;37.84;97096.38;5027311;28;20224;-67
2022/08/11 09:04:27;;;;;;;719.35;654.65;;;;;;;24.01;37.64;97103.94;5030233;28;20579;-66
2022/08/11 09:06:55;;;;;;;627.83;577.15;;;;;;;24.23;37.18;97107.72;5031801;28;20187;-65
2022/08/11 09:09:21;;;;;;;542.08;503.48;;;;;;;24.43;36.03;97097.25;5031717;28;20285;-66
2022/08/11 09:11:52;;;;;;;618.88;573.20;;;;;;;24.74;36.17;97099.16;5028687;28;20187;-65
2022/08/11 09:14:21;;;;;;;603.10;549.75;;;;;;;24.48;36.66;97103.56;5030785;28;20256;-65
2022/08/11 09:16:48;;;;;;;531.20;495.38;;;;;;;24.62;36.74;97091.69;5031026;28;20187;-65
2022/08/11 09:19:16;;;;;;;649.97;587.47;;;;;;;24.61;36.99;97091.97;5030438;28;20214;-66
2022/08/11 09:27:22;;;;;;;546.83;508.58;;;;;;;24.40;35.72;97102.44;5032434;28;20287;-65
2022/08/11 09:29:48;;;;;;;1985.78;909.00;;;;;;;24.37;36.55;97095.81;5032160;28;20202;-65
2022/08/11 09:32:14;;;;;;;507.85;475.13;;;;;;;24.10;35.92;97108.53;5031294;28;20186;-65
2022/08/11 09:34:40;;;;;;;592.55;544.05;;;;;;;24.47;35.42;97104.66;5031185;28;20193;-66
2022/08/11 09:45:22;;;;;;;435.67;408.58;;;;;;;24.83;35.08;97105.31;5031102;28;20181;-67
2022/08/11 09:47:48;;;;;;;503.05;466.77;;;;;;;24.90;33.79;97099.53;5030391;28;20266;-67
2022/08/11 09:50:15;;;;;;;501.33;465.38;;;;;;;25.00;34.17;97091.19;5026296;28;20233;-68
2022/08/11 09:52:41;;;;;;;534.13;495.23;;;;;;;24.75;34.43;97095.34;5025660;28;20247;-66
2022/08/11 09:55:10;;;;;;;734.03;657.05;;;;;;;24.61;34.51;97094.66;5030947;28;20183;-66
2022/08/11 10:00:36;;;;;;;846.22;751.15;;;;;;;24.46;34.36;97085.16;5030725;28;20259;-64
2022/08/11 10:03:05;;;;;;;618.33;551.30;;;;;;;24.86;34.14;97085.91;5028155;28;20178;-67
2022/08/11 10:08:18;;;;;;;1114.85;679.70;;;;;;;25.01;33.50;97085.53;5030947;28;20185;-67
2022/08/11 10:10:45;;;;;;;477.02;441.10;;;;;;;24.88;34.14;97086.44;5030802;28;20199;-66
2022/08/11 10:13:24;;;;;;;578.63;529.85;;;;;;;25.01;34.29;97096.25;5030605;28;20183;-67
2022/08/11 10:15:53;;;;;;;442.92;412.65;;;;;;;24.98;33.31;97088.81;5029735;28;20274;-66
2022/08/11 10:18:41;;;;;;;696.33;620.50;;;;;;;24.51;33.80;97090.38;5030727;28;20230;-67
2022/08/11 10:21:35;;;;;;;764.17;612.35;;;;;;;24.43;33.37;97083.84;5029489;28;20206;-66
2022/08/11 10:26:54;;;;;;;422.48;394.40;;;;;;;24.68;34.18;97081.59;5030371;28;20265;-67
2022/08/11 10:34:56;;;;;;;1180.22;793.65;;;;;;;24.59;33.46;97076.19;5033496;28;20182;-67
2022/08/11 10:37:23;;;;;;;542.08;495.98;;;;;;;24.62;33.02;97075.59;5034309;28;20548;-66
2022/08/11 10:39:50;;;;;;;520.35;480.40;;;;;;;24.99;33.19;97066.28;5030995;28;20194;-67
2022/08/11 10:47:33;;;;;;;534.08;491.45;;;;;;;25.09;32.53;97063.28;5034682;28;20306;-66
2022/08/11 10:47:51;;;;;;;444.95;414.65;;;;;;;25.28;32.63;97052.28;5033771;28;20186;-66
2022/08/11 10:58:46;;;;;;;403.35;375.75;;;;;;;24.84;33.56;97058.63;5032617;28;20317;-66
2022/08/11 11:01:13;;;;;;;533.33;491.33;;;;;;;25.05;33.39;97050.81;5033609;28;20266;-66
2022/08/11 11:03:39;;;;;;;574.42;527.08;;;;;;;25.09;33.15;97049.06;5031296;28;20189;-67
2022/08/11 11:06:10;;;;;;;1257.30;825.22;;;;;;;24.96;32.55;97041.97;5034170;28;20194;-65
2022/08/11 11:08:53;;;;;;;743.55;668.60;;;;;;;25.38;32.27;97037.75;5033216;28;20596;-65
2022/08/11 11:11:22;;;;;;;582.50;538.70;;;;;;;25.38;32.27;97041.22;5034920;28;20202;-66
2022/08/11 11:19:24;;;;;;;582.10;543.63;;;;;;;25.55;31.23;97037.75;5033097;28;20190;-65
2022/08/11 11:21:53;;;;;;;545.17;507.77;;;;;;;25.46;31.45;97028.91;5033980;28;20265;-65
2022/08/11 11:24:47;;;;;;;674.17;616.42;;;;;;;25.77;30.89;97034.91;5033557;28;20205;-65
2022/08/11 11:27:25;;;;;;;539.00;493.20;;;;;;;25.63;30.96;97029.72;5032046;28;20316;-67
2022/08/11 11:29:53;;;;;;;538.70;492.55;;;;;;;25.76;30.82;97030.66;5023905;28;20218;-67
2022/08/11 11:32:33;;;;;;;1830.97;836.15;;;;;;;25.27;31.05;97015.81;5025086;28;20337;-66
2022/08/11 11:35:14;;;;;;;702.10;625.45;;;;;;;25.45;30.97;97021.97;5028983;28;20907;-66
2022/08/11 11:37:42;;;;;;;505.65;469.52;;;;;;;25.80;30.66;97020.84;5032003;28;20218;-65
2022/08/11 11:40:11;;;;;;;497.83;463.75;;;;;;;25.60;30.18;97016.13;5032520;28;20191;-65
2022/08/11 11:42:38;;;;;;;505.95;470.30;;;;;;;25.92;30.10;97014.81;5033283;28;20178;-66
2022/08/11 11:45:05;;;;;;;516.28;480.95;;;;;;;25.92;29.89;97018.28;5033013;28;20647;-65
2022/08/11 11:47:31;;;;;;;485.35;452.73;;;;;;;26.04;29.83;97014.94;5032632;28;20182;-65
2022/08/11 11:49:58;;;;;;;516.08;481.33;;;;;;;25.83;29.11;97008.69;5033078;28;20210;-67
2022/08/11 11:52:25;;;;;;;610.08;543.67;;;;;;;26.03;29.52;96999.94;5033610;28;20211;-67
2022/08/11 11:54:55;;;;;;;624.67;577.08;;;;;;;25.77;29.64;97000.00;5033614;28;20190;-65
2022/08/11 12:02:58;;;;;;;457.90;426.38;;;;;;;26.29;29.41;96995.31;5032846;28;20252;-66
2022/08/11 12:05:25;;;;;;;562.38;525.97;;;;;;;26.14;28.95;97001.16;5029882;28;20608;-66
2022/08/11 12:13:46;;;;;;;702.83;649.05;;;;;;;26.19;29.50;96992.97;4990576;28;20226;-66
2022/08/11 12:16:16;;;;;;;829.05;723.15;;;;;;;26.13;29.32;96993.44;4991101;28;20207;-66
2022/08/11 12:18:45;;;;;;;551.58;515.20;;;;;;;26.44;29.15;97002.84;4991325;28;20191;-67
2022/08/11 12:21:14;;;;;;;648.63;604.53;;;;;;;26.48;28.37;97000.28;4990168;28;20617;-67
2022/08/11 12:29:11;;;;;;;534.85;498.38;;;;;;;26.17;28.08;96999.75;4990333;28;20251;-65
2022/08/11 12:31:38;;;;;;;524.03;489.33;;;;;;;26.19;28.34;96986.78;4989823;28;20607;-65
2022/08/11 12:34:08;;;;;;;462.02;432.73;;;;;;;26.25;28.69;96983.59;4989823;28;20208;-65
2022/08/11 12:36:37;;;;;;;483.65;451.15;;;;;;;26.47;28.00;96982.59;4983155;28;20199;-65
2022/08/11 12:39:08;;;;;;;587.60;547.25;;;;;;;26.41;28.19;96981.97;4987482;28;20223;-65
2022/08/11 12:47:08;;;;;;;690.92;635.13;;;;;;;26.34;28.51;96968.25;5032385;28;20674;-65
2022/08/11 12:52:28;;;;;;;591.47;553.38;;;;;;;26.70;27.78;96958.88;5031622;28;20329;-66
2022/08/11 12:55:11;;;;;;;584.88;544.25;;;;;;;26.94;27.53;96959.06;5031991;28;20212;-65
2022/08/11 13:05:58;;;;;;;630.45;589.15;;;;;;;27.06;27.51;96944.88;5031931;28;20202;-66
2022/08/11 13:08:26;;;;;;;625.17;578.30;;;;;;;26.80;27.30;96948.53;5028738;28;20199;-66
2022/08/11 13:13:45;;;;;;;551.20;515.83;;;;;;;26.70;27.24;96940.03;5001639;28;20602;-66
2022/08/11 13:16:13;;;;;;;608.45;566.00;;;;;;;26.81;27.27;96947.41;5031762;28;20187;-65
2022/08/11 13:18:41;;;;;;;541.50;506.88;;;;;;;26.83;26.83;96944.38;5031670;28;20178;-66
2022/08/11 13:21:09;;;;;;;565.97;529.88;;;;;;;26.68;27.41;96929.63;5032334;28;20183;-68
2022/08/11 13:23:37;;;;;;;573.33;536.97;;;;;;;26.75;27.36;96924.50;5031180;28;20194;-65
2022/08/11 13:26:03;;;;;;;800.65;725.50;;;;;;;27.11;27.46;96929.34;5031327;28;20245;-65
2022/08/11 13:28:30;;;;;;;729.28;664.50;;;;;;;26.98;27.71;96932.28;5031774;28;20221;-65
2022/08/11 13:31:11;;;;;;;480.10;448.83;;;;;;;27.08;27.48;96932.69;5030357;28;20703;-66
2022/08/11 13:33:55;;;;;;;630.47;584.70;;;;;;;26.56;27.38;96932.22;5031129;28;20266;-65
2022/08/11 13:36:26;;;;;;;746.25;676.67;;;;;;;26.66;27.80;96928.38;5030323;28;20190;-65
2022/08/11 13:38:53;;;;;;;529.25;491.02;;;;;;;26.80;27.15;96927.03;5030204;28;20266;-65
2022/08/11 13:41:38;;;;;;;571.20;532.45;;;;;;;26.94;27.07;96920.59;5031174;28;20248;-65
2022/08/11 13:44:05;;;;;;;512.22;479.77;;;;;;;27.07;27.15;96930.31;5029076;28;20181;-65
2022/08/11 13:46:31;;;;;;;632.20;585.95;;;;;;;27.14;26.86;96930.59;5031221;28;20197;-65
2022/08/11 13:48:57;;;;;;;652.60;609.90;;;;;;;27.14;26.65;96919.81;5030877;28;20182;-66
2022/08/11 13:51:30;;;;;;;831.05;730.80;;;;;;;27.02;26.78;96909.00;5031227;28;20268;-65
2022/08/11 13:54:05;;;;;;;478.70;448.35;;;;;;;27.01;26.56;96913.59;5029542;28;20224;-65
2022/08/11 13:56:32;;;;;;;576.83;540.45;;;;;;;27.06;26.41;96909.91;5029226;28;20201;-65
2022/08/11 13:59:00;;;;;;;607.30;569.78;;;;;;;27.27;26.34;96906.06;5031979;28;20671;-65
2022/08/11 14:01:32;;;;;;;605.67;567.63;;;;;;;27.36;26.27;96911.38;5031449;28;20201;-68
2022/08/11 14:04:23;;;;;;;628.10;586.38;;;;;;;27.02;26.30;96909.78;5024444;28;20179;-68
2022/08/11 14:06:52;;;;;;;567.85;531.83;;;;;;;27.10;26.69;96913.50;5029544;28;20289;-65
2022/08/11 14:09:31;;;;;;;614.30;572.78;;;;;;;27.11;26.79;96907.00;5030841;28;20182;-65
2022/08/11 14:14:54;;;;;;;605.97;566.58;;;;;;;27.15;26.23;96894.47;5029100;28;20193;-65
2022/08/11 14:17:21;;;;;;;680.65;628.53;;;;;;;27.06;26.26;96889.16;5029196;28;20183;-65
2022/08/11 14:19:51;;;;;;;653.92;607.67;;;;;;;27.16;26.43;96875.28;5030641;28;20182;-65
2022/08/11 14:22:17;;;;;;;570.53;534.70;;;;;;;27.17;26.12;96878.78;5031186;28;20203;-64
2022/08/11 14:24:48;;;;;;;572.92;537.67;;;;;;;27.21;25.94;96877.78;5030603;28;20178;-66
2022/08/11 14:27:15;;;;;;;548.72;511.75;;;;;;;27.28;25.84;96882.63;5028367;28;20716;-65
2022/08/11 14:29:42;;;;;;;477.02;444.58;;;;;;;27.22;26.00;96882.06;5030169;28;20212;-64
2022/08/11 14:32:10;;;;;;;669.90;603.65;;;;;;;27.32;26.01;96897.00;5029933;28;20725;-65
2022/08/11 14:34:40;;;;;;;687.75;553.80;;;;;;;27.10;26.09;96889.28;5027997;28;20182;-64
2022/08/11 14:37:14;;;;;;;487.55;455.23;;;;;;;27.29;26.28;96882.31;5030746;28;20233;-66
2022/08/11 14:39:45;;;;;;;384.50;362.25;;;;;;;27.18;25.92;96888.44;5030695;28;20616;-67
2022/08/11 14:47:54;;;;;;;411.73;384.10;;;;;;;27.42;24.81;96876.97;5027385;28;20178;-64
2022/08/11 14:50:22;;;;;;;497.55;464.00;;;;;;;27.39;25.19;96874.91;5029234;28;20294;-65
2022/08/11 14:53:14;;;;;;;469.38;438.13;;;;;;;27.43;25.00;96873.91;5030572;28;20483;-64
2022/08/11 14:58:43;;;;;;;568.85;529.92;;;;;;;27.51;24.95;96865.00;4949632;29;20284;-65
2022/08/11 15:03:08;;;;;;;597.40;556.80;;;;;;;27.28;24.97;96861.09;5011958;28;20286;-66
2022/08/11 15:03:56;;;;;;;785.63;717.67;;;;;;;27.33;25.25;96860.88;5028539;28;20210;-66
2022/08/11 15:06:24;;;;;;;628.15;585.58;;;;;;;27.31;25.17;96877.34;5029941;28;20185;-66
2022/08/11 15:08:53;;;;;;;643.50;598.92;;;;;;;27.39;24.84;96864.94;5028608;28;20194;-65
2022/08/11 15:14:07;;;;;;;602.85;562.45;;;;;;;27.66;24.81;96856.25;5028953;28;20178;-66
2022/08/11 15:19:20;;;;;;;762.00;690.75;;;;;;;27.20;24.61;96838.50;5032970;28;20262;-67
2022/08/11 15:24:34;;;;;;;681.80;631.83;;;;;;;27.55;25.38;96843.56;5032184;28;20729;-65
2022/08/11 15:38:03;;;;;;;762.10;708.08;;;;;;;27.49;24.88;96815.25;5032306;28;20197;-65
2022/08/11 15:46:19;;;;;;;770.83;715.20;;;;;;;27.43;24.67;96833.53;5029007;28;20266;-65
2022/08/11 15:48:56;;;;;;;777.78;722.85;;;;;;;27.25;25.23;96824.84;5029684;28;20634;-65